Time;durP1;ratioP1;P1;durP2;ratioP2;P2;SDS_P1;SDS_P2;PMS_P1;PMS_P2;Temp;Humidity;BMP_temperature;BMP_pressure;BME280_temperature;BME280_humidity;BME280_pressure;Samples;Min_cycle;Max_cycle;Signal;HPM_P1;HPM_P2
2023/04/12 00:00:11;;;;;;;6.40;3.57;;;;;;;10.83;nan;-24119.47;4995564;28;20643;-67
2023/04/12 00:02:37;;;;;;;6.73;4.00;;;;;;;10.64;nan;-24114.38;4994983;28;20169;-67
2023/04/12 00:05:03;;;;;;;5.13;3.50;;;;;;;10.71;nan;-24116.06;4995008;28;20260;-65
2023/04/12 00:07:29;;;;;;;6.37;3.87;;;;;;;10.74;nan;-24116.91;4995042;28;20252;-65
2023/04/12 00:09:55;;;;;;;9.07;3.80;;;;;;;10.66;nan;-24114.81;4994999;28;20638;-66
2023/04/12 00:12:20;;;;;;;4.90;3.63;;;;;;;10.84;nan;-24119.75;4995646;28;20165;-68
2023/04/12 00:14:46;;;;;;;6.57;4.13;;;;;;;10.63;nan;-24114.09;4995452;28;20588;-68
2023/04/12 00:17:12;;;;;;;6.85;4.00;;;;;;;10.86;nan;-24120.31;4994017;28;20169;-69
2023/04/12 00:19:40;;;;;;;6.93;3.92;;;;;;;10.45;nan;-24109.03;4993752;28;20255;-63
2023/04/12 00:22:10;;;;;;;6.38;4.22;;;;;;;10.64;nan;-24114.25;4994516;28;20181;-65
2023/04/12 00:24:39;;;;;;;6.00;3.67;;;;;;;10.59;nan;-24112.81;4994784;28;20180;-67
2023/04/12 00:27:05;;;;;;;5.75;3.13;;;;;;;10.76;nan;-24117.47;4994828;28;20308;-63
2023/04/12 00:29:31;;;;;;;5.40;3.78;;;;;;;11.11;nan;-24127.22;4926729;28;20247;-65
2023/04/12 00:31:58;;;;;;;6.05;3.55;;;;;;;10.84;nan;-24119.75;4725604;28;20214;-67
2023/04/12 00:34:24;;;;;;;7.43;3.90;;;;;;;10.85;nan;-24120.16;4994688;28;20647;-65
2023/04/12 00:36:49;;;;;;;5.53;3.75;;;;;;;10.87;nan;-24120.72;4994113;28;20260;-63
2023/04/12 00:39:15;;;;;;;8.10;3.78;;;;;;;11.11;nan;-24127.34;4994413;28;20260;-63
2023/04/12 00:41:40;;;;;;;5.43;3.60;;;;;;;10.77;nan;-24117.78;4977404;28;20236;-65
2023/04/12 00:44:06;;;;;;;5.97;3.78;;;;;;;11.01;nan;-24124.69;4974967;28;20177;-67
2023/04/12 00:46:32;;;;;;;6.93;4.03;;;;;;;10.72;nan;-24116.34;4974680;28;20178;-63
2023/04/12 00:48:58;;;;;;;5.00;3.50;;;;;;;10.80;nan;-24118.75;4974690;28;20169;-63
2023/04/12 00:51:24;;;;;;;6.10;4.18;;;;;;;10.88;nan;-24121.00;4974946;28;20268;-66
2023/04/12 00:53:56;;;;;;;4.22;3.22;;;;;;;10.81;nan;-24119.03;4978386;28;20177;-66
2023/04/12 00:56:23;;;;;;;4.90;3.50;;;;;;;10.90;nan;-24121.44;4975010;28;20261;-66
2023/04/12 00:58:48;;;;;;;5.13;3.67;;;;;;;10.92;nan;-24122.13;4974808;28;20187;-64
2023/04/12 01:01:15;;;;;;;6.43;3.85;;;;;;;10.78;nan;-24118.19;4974366;28;20189;-67
2023/04/12 01:03:42;;;;;;;5.57;3.78;;;;;;;10.58;nan;-24112.56;4974553;28;20625;-65
2023/04/12 01:06:29;;;;;;;6.10;3.33;;;;;;;10.83;nan;-24119.59;4975047;28;20165;-66
2023/04/12 01:09:14;;;;;;;4.90;3.50;;;;;;;10.97;nan;-24123.53;4974843;28;20293;-66
2023/04/12 01:11:50;;;;;;;5.05;3.35;;;;;;;11.01;nan;-24124.69;4974660;28;20165;-65
2023/04/12 01:14:16;;;;;;;11.38;3.30;;;;;;;11.04;nan;-24125.38;4974607;28;20247;-67
2023/04/12 01:16:49;;;;;;;5.20;3.22;;;;;;;11.02;nan;-24124.97;4974820;28;20585;-67
2023/04/12 01:19:56;;;;;;;5.90;3.75;;;;;;;11.15;nan;-24128.47;4974691;28;20200;-64
2023/04/12 01:22:31;;;;;;;4.90;3.50;;;;;;;11.19;nan;-24129.59;4914516;29;20194;-65
2023/04/12 01:25:26;;;;;;;4.70;3.22;;;;;;;11.17;nan;-24129.03;4968672;28;20283;-67
2023/04/12 01:28:01;;;;;;;4.07;3.05;;;;;;;11.06;nan;-24126.09;4974586;28;20162;-68
2023/04/12 01:30:28;;;;;;;5.07;3.42;;;;;;;11.17;nan;-24128.91;4973930;28;20201;-66
2023/04/12 01:32:55;;;;;;;6.00;3.80;;;;;;;11.26;nan;-24131.59;4973818;28;20715;-63
2023/04/12 01:35:25;;;;;;;5.15;3.78;;;;;;;11.30;nan;-24132.56;4974005;28;20668;-67
2023/04/12 01:37:51;;;;;;;5.90;3.80;;;;;;;11.05;nan;-24125.66;4974458;28;20186;-65
2023/04/12 01:40:18;;;;;;;4.95;3.60;;;;;;;11.29;nan;-24132.28;4973912;28;20232;-63
2023/04/12 01:42:43;;;;;;;9.32;3.70;;;;;;;10.84;nan;-24119.88;4974053;28;20637;-69
2023/04/12 01:45:09;;;;;;;7.90;3.83;;;;;;;11.06;nan;-24125.94;4973826;28;20193;-66
2023/04/12 01:47:35;;;;;;;6.15;3.70;;;;;;;11.11;nan;-24127.22;4973394;28;20256;-66
2023/04/12 01:50:23;;;;;;;5.65;3.60;;;;;;;11.30;nan;-24132.72;4974034;28;20193;-69
2023/04/12 01:53:00;;;;;;;5.53;3.90;;;;;;;10.96;nan;-24123.25;4974640;28;20180;-65
2023/04/12 01:55:30;;;;;;;5.13;3.53;;;;;;;11.17;nan;-24129.03;4975216;28;20181;-66
2023/04/12 01:57:56;;;;;;;4.80;3.10;;;;;;;10.89;nan;-24121.28;4973420;28;20173;-66
2023/04/12 02:00:22;;;;;;;6.05;3.45;;;;;;;11.05;nan;-24125.81;4973670;28;20265;-68
2023/04/12 02:02:48;;;;;;;5.32;3.63;;;;;;;11.32;nan;-24133.28;4973692;28;20180;-68
2023/04/12 02:05:14;;;;;;;5.82;3.88;;;;;;;11.35;nan;-24133.97;4972270;28;20764;-68
2023/04/12 02:07:40;;;;;;;9.07;3.58;;;;;;;11.24;nan;-24131.03;4973582;28;20174;-69
2023/04/12 02:10:06;;;;;;;7.95;3.75;;;;;;;11.05;nan;-24125.81;4973344;28;20275;-65
2023/04/12 02:12:32;;;;;;;5.78;3.72;;;;;;;11.24;nan;-24131.03;4973717;28;20629;-68
2023/04/12 02:14:57;;;;;;;7.55;3.67;;;;;;;11.02;nan;-24124.81;4973345;28;20178;-63
2023/04/12 02:17:23;;;;;;;6.45;4.03;;;;;;;11.27;nan;-24131.72;4973502;28;20169;-64
2023/04/12 02:19:48;;;;;;;5.53;3.63;;;;;;;11.20;nan;-24129.75;4973375;28;20606;-64
2023/04/12 02:22:14;;;;;;;8.75;3.80;;;;;;;11.15;nan;-24128.34;4973181;28;20294;-64
2023/04/12 02:24:40;;;;;;;4.22;3.25;;;;;;;10.78;nan;-24118.19;4973456;28;20178;-68
2023/04/12 02:27:05;;;;;;;6.00;3.90;;;;;;;10.79;nan;-24118.34;4973386;28;20633;-66
2023/04/12 02:29:31;;;;;;;6.10;4.10;;;;;;;10.74;nan;-24116.91;4973527;28;20617;-63
2023/04/12 02:31:56;;;;;;;6.82;3.75;;;;;;;10.99;nan;-24123.97;4976033;28;20192;-67
2023/04/12 02:34:22;;;;;;;7.30;4.18;;;;;;;10.91;nan;-24121.72;4982201;28;20184;-66
2023/04/12 02:36:48;;;;;;;6.95;4.60;;;;;;;10.69;nan;-24115.66;4982009;28;20195;-66
2023/04/12 02:39:17;;;;;;;4.93;3.42;;;;;;;10.51;nan;-24110.56;4992989;28;20184;-67
2023/04/12 02:41:43;;;;;;;6.30;4.45;;;;;;;10.42;nan;-24108.03;4978132;28;20723;-64
2023/04/12 02:44:08;;;;;;;7.28;4.40;;;;;;;10.43;nan;-24108.47;4976933;28;20227;-69
2023/04/12 02:46:33;;;;;;;7.25;3.58;;;;;;;10.83;nan;-24119.47;4976796;28;20176;-66
2023/04/12 02:48:59;;;;;;;6.55;3.53;;;;;;;10.41;nan;-24107.88;4976935;28;20205;-65
2023/04/12 02:51:24;;;;;;;7.95;3.70;;;;;;;10.67;nan;-24114.94;4976818;28;20223;-67
2023/04/12 02:53:51;;;;;;;6.40;4.10;;;;;;;10.73;nan;-24116.63;4977911;28;20197;-68
2023/04/12 02:56:17;;;;;;;5.90;3.47;;;;;;;10.24;nan;-24103.09;4976445;28;20184;-66
2023/04/12 02:58:43;;;;;;;7.13;4.70;;;;;;;10.66;nan;-24114.81;4976786;28;20555;-65
2023/04/12 03:01:11;;;;;;;6.85;4.22;;;;;;;10.54;nan;-24111.41;4985616;28;20184;-66
2023/04/12 03:03:37;;;;;;;5.80;3.85;;;;;;;10.40;nan;-24107.47;4978919;28;20177;-67
2023/04/12 03:06:03;;;;;;;6.70;4.20;;;;;;;10.67;nan;-24114.94;4996046;28;20187;-65
2023/04/12 03:08:29;;;;;;;8.80;3.92;;;;;;;10.50;nan;-24110.28;4996065;28;20227;-68
2023/04/12 03:10:56;;;;;;;6.38;3.75;;;;;;;10.71;nan;-24116.22;4995444;28;20204;-68
2023/04/12 03:13:22;;;;;;;5.28;3.83;;;;;;;10.49;nan;-24110.16;4994937;28;20272;-70
2023/04/12 03:15:48;;;;;;;8.43;4.15;;;;;;;10.76;nan;-24117.63;4995748;28;20180;-66
2023/04/12 03:18:14;;;;;;;5.68;3.50;;;;;;;10.93;nan;-24122.28;4996286;28;20188;-69
2023/04/12 03:20:43;;;;;;;5.30;3.58;;;;;;;10.96;nan;-24123.13;4995189;28;20554;-68
2023/04/12 03:23:09;;;;;;;6.50;4.05;;;;;;;10.84;nan;-24119.88;4996083;28;20264;-64
2023/04/12 03:25:35;;;;;;;6.43;4.30;;;;;;;10.68;nan;-24115.22;4995999;28;20256;-64
2023/04/12 03:28:01;;;;;;;5.40;3.65;;;;;;;10.87;nan;-24120.72;4996396;28;20231;-67
2023/04/12 03:30:26;;;;;;;5.18;3.78;;;;;;;10.96;nan;-24123.13;4996350;28;20619;-68
2023/04/12 03:32:52;;;;;;;5.13;3.42;;;;;;;10.68;nan;-24115.38;4995770;28;20605;-69
2023/04/12 03:35:17;;;;;;;5.35;4.00;;;;;;;10.71;nan;-24116.22;4995719;28;20171;-68
2023/04/12 03:37:42;;;;;;;5.63;3.22;;;;;;;10.96;nan;-24123.13;4995821;28;20256;-66
2023/04/12 03:40:09;;;;;;;5.20;3.70;;;;;;;11.01;nan;-24124.69;4995439;28;20621;-66
2023/04/12 03:42:35;;;;;;;8.93;3.45;;;;;;;10.85;nan;-24120.03;4995920;28;20235;-70
2023/04/12 03:45:01;;;;;;;5.90;3.57;;;;;;;10.80;nan;-24118.75;4995970;28;20181;-66
2023/04/12 03:47:26;;;;;;;6.85;4.15;;;;;;;10.57;nan;-24112.25;4995577;28;20224;-63
2023/04/12 03:49:54;;;;;;;5.10;3.55;;;;;;;10.44;nan;-24108.59;4995351;28;20354;-66
2023/04/12 03:52:19;;;;;;;6.85;4.28;;;;;;;10.74;nan;-24117.06;4995128;28;20176;-67
2023/04/12 03:54:45;;;;;;;5.57;3.47;;;;;;;10.70;nan;-24115.78;4996346;28;20688;-67
2023/04/12 03:57:10;;;;;;;6.45;3.45;;;;;;;10.36;nan;-24106.34;4996330;28;20196;-66
2023/04/12 03:59:36;;;;;;;6.97;3.75;;;;;;;10.71;nan;-24116.22;4995182;28;20179;-62
2023/04/12 04:02:01;;;;;;;6.72;3.97;;;;;;;10.95;nan;-24122.84;4995519;28;20166;-66
2023/04/12 04:04:27;;;;;;;6.45;4.55;;;;;;;10.99;nan;-24124.13;4995248;28;20188;-66
2023/04/12 04:06:53;;;;;;;7.38;3.90;;;;;;;11.12;nan;-24127.63;4994849;28;20176;-68
2023/04/12 04:09:19;;;;;;;6.32;4.35;;;;;;;11.12;nan;-24127.63;4994568;28;20172;-66
2023/04/12 04:11:45;;;;;;;10.45;4.35;;;;;;;11.20;nan;-24129.75;4995292;28;20227;-68
2023/04/12 04:14:11;;;;;;;5.60;3.80;;;;;;;10.93;nan;-24122.41;4995097;28;20667;-66
2023/04/12 04:16:37;;;;;;;6.07;4.20;;;;;;;10.94;nan;-24122.69;4994745;28;20177;-66
2023/04/12 04:19:02;;;;;;;7.40;3.85;;;;;;;11.17;nan;-24129.03;4995000;28;20714;-68
2023/04/12 04:21:31;;;;;;;7.35;4.22;;;;;;;11.15;nan;-24128.34;4994935;28;20288;-68
2023/04/12 04:23:59;;;;;;;7.35;4.05;;;;;;;11.07;nan;-24126.22;4994585;28;20192;-63
2023/04/12 04:26:31;;;;;;;6.40;4.07;;;;;;;11.01;nan;-24124.53;4995145;28;20271;-64
2023/04/12 04:29:00;;;;;;;7.32;4.55;;;;;;;11.00;nan;-24124.41;4994604;28;20627;-66
2023/04/12 04:31:26;;;;;;;6.03;3.75;;;;;;;11.05;nan;-24125.81;4994449;28;20239;-65
2023/04/12 04:33:52;;;;;;;6.85;4.28;;;;;;;10.97;nan;-24123.41;4994349;28;20180;-67
2023/04/12 04:36:18;;;;;;;10.32;4.18;;;;;;;11.23;nan;-24130.75;4994670;28;20168;-66
2023/04/12 04:38:43;;;;;;;7.13;3.53;;;;;;;11.14;nan;-24128.06;4994956;28;20255;-67
2023/04/12 04:41:09;;;;;;;6.72;4.25;;;;;;;11.21;nan;-24130.19;4994412;28;20183;-66
2023/04/12 04:43:38;;;;;;;7.75;4.45;;;;;;;11.19;nan;-24129.59;4993586;28;20541;-67
2023/04/12 04:46:04;;;;;;;8.18;4.70;;;;;;;11.48;nan;-24137.63;4982904;28;20648;-65
2023/04/12 04:48:29;;;;;;;7.45;4.07;;;;;;;11.47;nan;-24137.50;4983668;28;20237;-68
2023/04/12 04:50:55;;;;;;;9.02;5.10;;;;;;;11.28;nan;-24132.00;4985623;28;20576;-70
2023/04/12 04:53:21;;;;;;;8.00;4.53;;;;;;;11.47;nan;-24137.50;4994462;28;20180;-67
2023/04/12 04:55:47;;;;;;;7.35;4.38;;;;;;;11.38;nan;-24134.97;4990962;28;20192;-69
2023/04/12 04:58:14;;;;;;;6.80;4.10;;;;;;;11.64;nan;-24142.16;4980627;28;20566;-65
2023/04/12 05:00:43;;;;;;;7.63;4.55;;;;;;;11.47;nan;-24137.50;4983617;28;20638;-66
2023/04/12 05:03:10;;;;;;;9.20;4.30;;;;;;;11.80;nan;-24146.66;4980213;28;20182;-70
2023/04/12 05:05:35;;;;;;;8.05;4.70;;;;;;;11.50;nan;-24138.34;4983791;28;20181;-71
2023/04/12 05:08:01;;;;;;;9.60;4.40;;;;;;;11.79;nan;-24146.25;4981129;28;20177;-67
2023/04/12 05:10:26;;;;;;;8.43;4.57;;;;;;;11.78;nan;-24145.97;4979323;28;20235;-66
2023/04/12 05:12:51;;;;;;;9.18;4.82;;;;;;;11.90;nan;-24149.47;4981437;28;20266;-69
2023/04/12 05:15:18;;;;;;;6.82;3.47;;;;;;;12.01;nan;-24152.44;4982177;28;20173;-65
2023/04/12 05:17:43;;;;;;;8.90;4.47;;;;;;;12.34;nan;-24161.59;4982484;28;20188;-65
2023/04/12 05:20:12;;;;;;;9.50;5.22;;;;;;;12.26;nan;-24159.34;4981923;28;20178;-66
2023/04/12 05:22:37;;;;;;;9.50;4.35;;;;;;;12.35;nan;-24161.88;4982087;28;20181;-67
2023/04/12 05:25:03;;;;;;;6.03;4.40;;;;;;;12.35;nan;-24161.88;4981885;28;20177;-67
2023/04/12 05:27:29;;;;;;;8.35;4.10;;;;;;;12.44;nan;-24164.41;4982248;28;20189;-64
2023/04/12 05:29:58;;;;;;;12.15;4.82;;;;;;;12.50;nan;-24165.94;4981964;28;20586;-66
2023/04/12 05:32:24;;;;;;;9.18;5.07;;;;;;;12.60;nan;-24168.91;4981976;28;20185;-66
2023/04/12 05:34:51;;;;;;;8.00;5.07;;;;;;;12.56;nan;-24167.63;4981945;28;20296;-67
2023/04/12 05:37:16;;;;;;;8.30;4.82;;;;;;;12.53;nan;-24166.94;4987851;28;20632;-67
2023/04/12 05:39:41;;;;;;;8.35;5.30;;;;;;;12.68;nan;-24171.00;4990776;28;20272;-69
2023/04/12 05:42:07;;;;;;;11.93;4.50;;;;;;;12.85;nan;-24175.78;4982475;28;20614;-66
2023/04/12 05:44:38;;;;;;;10.50;5.03;;;;;;;12.79;nan;-24174.09;4979466;28;20268;-69
2023/04/12 05:47:04;;;;;;;11.18;5.50;;;;;;;12.69;nan;-24171.44;4982882;28;20229;-68
2023/04/12 05:49:30;;;;;;;8.82;4.68;;;;;;;12.53;nan;-24166.78;4979290;28;20176;-70
2023/04/12 05:51:56;;;;;;;10.63;4.90;;;;;;;12.63;nan;-24169.75;4984016;28;20268;-67
2023/04/12 05:54:21;;;;;;;11.02;4.85;;;;;;;12.71;nan;-24171.84;4978512;28;20625;-65
2023/04/12 05:56:47;;;;;;;9.38;5.15;;;;;;;12.94;nan;-24178.31;4987259;28;20224;-67
2023/04/12 05:59:12;;;;;;;11.15;5.05;;;;;;;13.08;nan;-24182.25;4977504;28;20730;-67
2023/04/12 06:01:41;;;;;;;8.15;4.70;;;;;;;13.06;nan;-24181.56;4984197;28;20188;-67
2023/04/12 06:04:07;;;;;;;9.38;5.18;;;;;;;13.11;nan;-24183.09;4978021;28;20192;-66
2023/04/12 06:06:32;;;;;;;10.90;5.35;;;;;;;13.40;nan;-24190.97;4985156;28;20188;-63
2023/04/12 06:08:59;;;;;;;11.73;5.50;;;;;;;13.16;nan;-24184.38;4976774;28;20246;-65
2023/04/12 06:11:25;;;;;;;11.90;4.97;;;;;;;13.32;nan;-24188.88;4985709;28;20607;-67
2023/04/12 06:13:51;;;;;;;10.57;5.47;;;;;;;13.47;nan;-24192.94;4975261;28;20166;-66
2023/04/12 06:16:16;;;;;;;11.73;5.15;;;;;;;13.45;nan;-24192.38;4984747;28;20189;-67
2023/04/12 06:18:42;;;;;;;14.32;5.47;;;;;;;13.24;nan;-24186.75;4975211;28;20654;-68
2023/04/12 06:21:07;;;;;;;9.93;5.97;;;;;;;13.20;nan;-24185.50;4985713;28;20195;-66
2023/04/12 06:23:33;;;;;;;11.48;5.45;;;;;;;13.52;nan;-24194.47;4974483;28;20181;-69
2023/04/12 06:25:58;;;;;;;9.73;5.22;;;;;;;13.37;nan;-24190.13;4986157;28;20180;-64
2023/04/12 06:28:24;;;;;;;8.20;4.65;;;;;;;13.52;nan;-24194.47;4976316;28;20633;-64
2023/04/12 06:30:49;;;;;;;9.98;5.80;;;;;;;13.70;nan;-24199.41;4984552;28;20308;-65
2023/04/12 06:33:15;;;;;;;8.63;5.15;;;;;;;13.70;nan;-24199.41;4977300;28;20189;-68
2023/04/12 06:35:40;;;;;;;18.15;4.78;;;;;;;13.58;nan;-24196.03;4983421;28;20254;-65
2023/04/12 06:38:05;;;;;;;8.95;5.22;;;;;;;13.80;nan;-24202.06;4978182;28;20184;-68
2023/04/12 06:40:31;;;;;;;10.10;5.53;;;;;;;13.80;nan;-24202.19;4981811;28;20185;-65
2023/04/12 06:42:57;;;;;;;8.60;4.97;;;;;;;14.12;nan;-24211.19;4979124;28;20170;-68
2023/04/12 06:45:22;;;;;;;9.60;4.88;;;;;;;14.26;nan;-24214.84;4980665;28;20185;-67
2023/04/12 06:47:48;;;;;;;8.85;4.75;;;;;;;14.16;nan;-24212.31;4979999;28;20712;-63
2023/04/12 06:50:13;;;;;;;8.55;4.72;;;;;;;14.27;nan;-24215.13;4980263;28;20359;-65
2023/04/12 06:52:39;;;;;;;10.30;4.57;;;;;;;14.41;nan;-24219.03;4980914;28;20641;-65
2023/04/12 06:55:06;;;;;;;8.35;4.60;;;;;;;14.29;nan;-24215.81;4980749;28;20359;-65
2023/04/12 06:57:31;;;;;;;7.10;4.20;;;;;;;14.15;nan;-24211.88;4984611;28;20701;-64
2023/04/12 06:59:56;;;;;;;9.00;5.03;;;;;;;14.59;nan;-24224.09;4980759;28;20259;-66
2023/04/12 07:02:22;;;;;;;6.15;3.80;;;;;;;12.90;nan;-24177.19;4980777;28;20185;-65
2023/04/12 07:04:52;;;;;;;7.25;3.83;;;;;;;14.90;nan;-24232.78;4980434;28;20182;-68
2023/04/12 07:07:19;;;;;;;5.72;3.35;;;;;;;14.79;nan;-24229.56;4988211;28;20243;-67
2023/04/12 07:09:46;;;;;;;6.82;3.60;;;;;;;14.94;nan;-24233.91;4989405;28;20178;-67
2023/04/12 07:12:11;;;;;;;7.65;3.45;;;;;;;14.98;nan;-24234.88;4981175;28;20185;-68
2023/04/12 07:14:37;;;;;;;5.22;3.58;;;;;;;14.94;nan;-24233.91;4978647;28;20241;-67
2023/04/12 07:17:02;;;;;;;5.32;3.33;;;;;;;15.27;nan;-24243.00;4981732;28;20189;-66
2023/04/12 07:19:30;;;;;;;5.45;3.20;;;;;;;15.39;nan;-24246.22;4978334;28;20247;-68
2023/04/12 07:21:55;;;;;;;4.68;3.15;;;;;;;15.35;nan;-24245.13;4981526;28;20585;-68
2023/04/12 07:24:21;;;;;;;3.35;2.15;;;;;;;10.73;nan;-24116.63;4978746;28;20204;-63
2023/04/12 07:26:46;;;;;;;4.20;2.22;;;;;;;15.09;nan;-24237.81;4980169;28;20215;-66
2023/04/12 07:29:12;;;;;;;3.53;2.00;;;;;;;15.01;nan;-24235.72;4994018;28;20268;-66
2023/04/12 07:31:37;;;;;;;4.57;1.67;;;;;;;15.37;nan;-24245.81;4986654;28;20200;-67
2023/04/12 07:34:03;;;;;;;4.55;1.60;;;;;;;15.52;nan;-24249.88;4979842;28;20192;-66
2023/04/12 07:36:28;;;;;;;1.75;1.48;;;;;;;15.52;nan;-24249.75;4990709;28;20244;-65
2023/04/12 07:38:54;;;;;;;4.32;1.80;;;;;;;16.04;nan;-24264.28;4995415;28;20189;-68
2023/04/12 07:41:21;;;;;;;1.88;1.55;;;;;;;16.32;nan;-24271.97;4988007;28;20180;-68
2023/04/12 07:43:46;;;;;;;1.70;1.27;;;;;;;16.09;nan;-24265.56;4977725;28;20284;-64
2023/04/12 07:46:12;;;;;;;1.48;1.38;;;;;;;16.03;nan;-24263.88;4988742;28;20263;-65
2023/04/12 07:48:37;;;;;;;1.33;1.13;;;;;;;16.19;nan;-24268.34;4977148;28;20641;-68
2023/04/12 07:51:03;;;;;;;1.30;1.20;;;;;;;16.16;nan;-24267.66;4988600;28;20197;-64
2023/04/12 07:53:30;;;;;;;2.05;1.40;;;;;;;16.76;nan;-24284.28;4978549;28;20193;-69
2023/04/12 07:55:55;;;;;;;1.58;1.40;;;;;;;16.46;nan;-24275.88;4988524;28;20176;-69
2023/04/12 07:58:23;;;;;;;4.95;1.55;;;;;;;16.57;nan;-24278.81;4982459;28;20185;-67
2023/04/12 08:00:49;;;;;;;3.60;2.00;;;;;;;16.56;nan;-24278.69;4987342;28;20208;-65
2023/04/12 08:03:16;;;;;;;2.25;1.52;;;;;;;17.05;nan;-24292.09;4979953;28;20657;-66
2023/04/12 08:05:42;;;;;;;2.60;2.00;;;;;;;16.77;nan;-24284.41;4986008;28;20191;-66
2023/04/12 08:08:08;;;;;;;3.15;1.95;;;;;;;16.55;nan;-24278.28;4980367;28;20269;-65
2023/04/12 08:10:35;;;;;;;5.53;2.60;;;;;;;16.71;nan;-24282.88;4984868;28;20285;-65
2023/04/12 08:13:01;;;;;;;10.05;2.70;;;;;;;16.19;nan;-24268.34;4981118;28;20279;-67
2023/04/12 08:15:27;;;;;;;6.13;2.20;;;;;;;16.30;nan;-24271.56;4983817;28;20653;-67
2023/04/12 08:17:52;;;;;;;4.18;2.58;;;;;;;16.34;nan;-24272.53;4982115;28;20189;-66
2023/04/12 08:20:17;;;;;;;3.90;2.35;;;;;;;16.35;nan;-24272.97;4985656;28;20183;-67
2023/04/12 08:22:45;;;;;;;3.55;2.40;;;;;;;16.64;nan;-24280.94;4985668;28;20566;-64
2023/04/12 08:25:10;;;;;;;10.88;2.70;;;;;;;16.85;nan;-24286.50;4988819;28;20260;-66
2023/04/12 08:27:35;;;;;;;5.38;2.58;;;;;;;16.31;nan;-24271.84;4982692;28;20554;-68
2023/04/12 08:30:02;;;;;;;3.92;2.30;;;;;;;15.77;nan;-24256.88;4982799;28;20271;-67
2023/04/12 08:32:28;;;;;;;5.65;2.33;;;;;;;15.99;nan;-24262.75;4982811;28;20566;-66
2023/04/12 08:34:54;;;;;;;3.83;2.58;;;;;;;16.15;nan;-24267.22;4982796;28;20189;-66
2023/04/12 08:37:19;;;;;;;5.45;2.40;;;;;;;15.87;nan;-24259.53;4982574;28;20177;-67
2023/04/12 08:39:45;;;;;;;3.38;2.30;;;;;;;16.23;nan;-24269.59;4981078;28;20710;-67
2023/04/12 08:42:12;;;;;;;10.25;2.25;;;;;;;16.19;nan;-24268.34;4982687;28;20204;-70
2023/04/12 08:44:38;;;;;;;3.20;2.55;;;;;;;16.39;nan;-24273.94;4981404;28;20195;-66
2023/04/12 08:47:06;;;;;;;2.88;2.17;;;;;;;16.51;nan;-24277.28;4983908;28;20254;-65
2023/04/12 08:49:33;;;;;;;4.35;2.47;;;;;;;16.44;nan;-24275.34;5000217;28;20671;-67
2023/04/12 08:52:01;;;;;;;3.35;2.45;;;;;;;16.23;nan;-24269.59;4986241;28;20172;-64
2023/04/12 08:54:27;;;;;;;5.05;2.08;;;;;;;15.99;nan;-24262.75;4985052;28;20185;-66
2023/04/12 08:56:57;;;;;;;2.70;1.80;;;;;;;15.97;nan;-24262.31;4984045;28;20189;-68
2023/04/12 08:59:26;;;;;;;2.97;2.20;;;;;;;15.55;nan;-24250.72;4991424;28;20185;-66
2023/04/12 09:01:52;;;;;;;3.20;2.30;;;;;;;15.47;nan;-24248.47;4983994;28;20335;-67
2023/04/12 09:04:18;;;;;;;3.70;2.47;;;;;;;15.78;nan;-24257.16;4993317;28;20179;-65
2023/04/12 09:06:43;;;;;;;3.00;2.08;;;;;;;15.94;nan;-24261.34;4984947;28;20540;-66
2023/04/12 09:09:09;;;;;;;2.80;2.30;;;;;;;16.05;nan;-24264.56;4978609;28;20176;-67
2023/04/12 09:11:35;;;;;;;3.20;2.55;;;;;;;16.19;nan;-24268.47;4985638;28;20282;-67
2023/04/12 09:14:01;;;;;;;2.97;2.13;;;;;;;16.34;nan;-24272.53;4977980;28;20184;-67
2023/04/12 09:16:33;;;;;;;2.65;2.00;;;;;;;16.50;nan;-24276.88;4986405;28;20188;-64
2023/04/12 09:19:01;;;;;;;2.92;2.30;;;;;;;16.61;nan;-24279.94;4977527;28;20235;-73
2023/04/12 09:21:27;;;;;;;3.28;2.30;;;;;;;16.45;nan;-24275.63;4986464;28;20222;-68
2023/04/12 09:24:11;;;;;;;3.75;2.40;;;;;;;16.55;nan;-24278.41;4975162;28;20569;-70
2023/04/12 09:26:37;;;;;;;2.58;2.20;;;;;;;16.65;nan;-24281.06;4985389;28;20188;-69
2023/04/12 09:29:03;;;;;;;2.85;2.25;;;;;;;16.79;nan;-24285.13;4978520;28;20598;-68
2023/04/12 09:31:29;;;;;;;3.22;2.67;;;;;;;16.90;nan;-24287.91;4986162;28;20248;-68
2023/04/12 09:34:21;;;;;;;3.13;2.00;;;;;;;17.32;nan;-24299.50;4976860;28;20276;-69
2023/04/12 09:36:47;;;;;;;2.58;2.05;;;;;;;17.22;nan;-24296.84;4984511;28;20268;-58
2023/04/12 09:39:12;;;;;;;2.72;1.77;;;;;;;17.33;nan;-24299.91;4979503;28;20180;-59
2023/04/12 09:41:37;;;;;;;2.97;2.10;;;;;;;17.29;nan;-24298.81;4984972;28;20191;-58
2023/04/12 09:44:03;;;;;;;3.67;2.50;;;;;;;17.81;nan;-24313.03;4977840;28;20256;-59
2023/04/12 09:46:29;;;;;;;3.30;2.47;;;;;;;17.24;nan;-24297.41;4985878;28;20185;-59
2023/04/12 09:48:57;;;;;;;2.97;2.20;;;;;;;17.09;nan;-24293.22;4976603;28;20531;-58
2023/04/12 09:51:33;;;;;;;2.92;2.42;;;;;;;17.04;nan;-24291.81;4986418;28;20307;-57
2023/04/12 09:54:00;;;;;;;3.15;2.10;;;;;;;17.73;nan;-24310.81;4977224;28;20188;-58
2023/04/12 09:56:30;;;;;;;3.35;2.33;;;;;;;17.46;nan;-24303.56;4986269;28;20188;-58
2023/04/12 09:59:01;;;;;;;2.78;2.30;;;;;;;17.37;nan;-24300.91;4977025;28;20216;-58
2023/04/12 10:01:29;;;;;;;2.70;2.00;;;;;;;17.11;nan;-24293.78;4985827;28;20234;-58
2023/04/12 10:03:56;;;;;;;3.50;2.47;;;;;;;17.32;nan;-24299.63;4976941;28;20267;-58
2023/04/12 10:06:22;;;;;;;4.03;2.08;;;;;;;17.66;nan;-24309.13;4986459;28;20188;-58
2023/04/12 10:08:49;;;;;;;3.38;2.20;;;;;;;17.66;nan;-24309.00;4975671;28;20663;-58
2023/04/12 10:11:14;;;;;;;2.55;2.20;;;;;;;17.54;nan;-24305.78;4986172;28;20208;-59
2023/04/12 10:13:42;;;;;;;4.78;2.40;;;;;;;15.39;nan;-24246.38;4975183;28;20189;-59
2023/04/12 10:16:08;;;;;;;3.65;2.45;;;;;;;18.10;nan;-24321.13;4986180;28;20198;-57
2023/04/12 10:18:36;;;;;;;2.95;2.00;;;;;;;17.77;nan;-24311.91;4979012;28;20275;-58
2023/04/12 10:21:02;;;;;;;3.85;2.00;;;;;;;18.04;nan;-24319.59;4981797;28;20200;-58
2023/04/12 10:23:30;;;;;;;3.85;2.13;;;;;;;18.16;nan;-24322.81;4982866;28;20177;-58
2023/04/12 10:25:56;;;;;;;5.57;2.17;;;;;;;17.92;nan;-24316.09;4979135;28;20200;-59
2023/04/12 10:28:22;;;;;;;3.20;2.30;;;;;;;17.73;nan;-24310.81;4982954;28;20719;-59
2023/04/12 10:30:49;;;;;;;2.78;2.10;;;;;;;17.92;nan;-24316.25;4980552;28;20207;-58
2023/04/12 10:33:17;;;;;;;2.85;2.13;;;;;;;17.83;nan;-24313.75;4978604;28;20204;-59
2023/04/12 10:35:50;;;;;;;2.47;1.90;;;;;;;18.00;nan;-24318.34;4984646;28;20187;-58
2023/04/12 10:38:16;;;;;;;1.90;1.70;;;;;;;18.26;nan;-24325.59;4983687;28;20669;-59
2023/04/12 10:41:19;;;;;;;3.17;1.80;;;;;;;18.67;nan;-24336.88;4985067;28;20184;-59
2023/04/12 10:43:45;;;;;;;3.63;1.85;;;;;;;18.59;nan;-24334.50;4986002;28;20195;-59
2023/04/12 10:46:38;;;;;;;2.83;1.67;;;;;;;18.63;nan;-24335.75;4980320;28;20196;-58
2023/04/12 10:49:12;;;;;;;3.40;2.08;;;;;;;18.07;nan;-24320.44;4982186;28;20258;-59
2023/04/12 10:51:38;;;;;;;2.10;1.60;;;;;;;17.73;nan;-24310.81;4983913;28;20997;-59
2023/04/12 10:54:06;;;;;;;2.67;1.95;;;;;;;18.20;nan;-24323.78;4982523;28;20187;-58
2023/04/12 10:56:37;;;;;;;1.80;1.48;;;;;;;18.02;nan;-24318.91;4980716;28;20275;-58
2023/04/12 10:59:04;;;;;;;2.40;1.65;;;;;;;18.05;nan;-24319.72;4986139;28;20184;-58
2023/04/12 11:01:30;;;;;;;5.88;2.10;;;;;;;17.84;nan;-24314.00;4978867;28;20208;-57
2023/04/12 11:04:15;;;;;;;3.08;1.60;;;;;;;17.93;nan;-24316.38;4984676;28;20189;-57
2023/04/12 11:06:41;;;;;;;2.97;1.88;;;;;;;17.12;nan;-24294.19;4987342;28;20217;-57
2023/04/12 11:09:16;;;;;;;6.20;1.70;;;;;;;16.73;nan;-24283.44;4985278;28;20704;-57
2023/04/12 11:11:42;;;;;;;4.30;2.17;;;;;;;16.55;nan;-24278.41;4987910;28;20231;-59
2023/04/12 11:14:13;;;;;;;3.40;1.77;;;;;;;16.33;nan;-24272.25;4986167;28;20283;-59
2023/04/12 11:17:07;;;;;;;2.47;1.95;;;;;;;16.62;nan;-24280.22;4984840;28;20251;-59
2023/04/12 11:19:35;;;;;;;2.33;1.70;;;;;;;16.57;nan;-24278.97;4981491;28;20195;-58
2023/04/12 11:22:03;;;;;;;2.20;1.60;;;;;;;16.00;nan;-24263.03;4986488;28;20185;-57
2023/04/12 11:24:28;;;;;;;2.47;1.75;;;;;;;15.97;nan;-24262.19;4981492;28;20184;-59
2023/04/12 11:26:55;;;;;;;2.63;1.90;;;;;;;16.22;nan;-24269.31;4986174;28;20552;-58
2023/04/12 11:29:24;;;;;;;2.17;1.98;;;;;;;16.46;nan;-24275.75;4982840;28;20169;-58
2023/04/12 11:31:50;;;;;;;3.65;1.70;;;;;;;16.81;nan;-24285.41;4988275;28;20212;-58
2023/04/12 11:34:19;;;;;;;2.05;1.88;;;;;;;16.89;nan;-24287.63;4992212;28;20184;-58
2023/04/12 11:36:45;;;;;;;2.17;1.67;;;;;;;17.39;nan;-24301.44;4986653;28;20195;-58
2023/04/12 11:39:11;;;;;;;2.20;1.60;;;;;;;17.94;nan;-24316.81;4980621;28;20661;-57
2023/04/12 11:41:49;;;;;;;1.83;1.70;;;;;;;18.19;nan;-24323.63;4984787;28;20192;-58